TimeCDT,TemperatureF,Dew PointF,Humidity,Sea Level PressureIn,VisibilityMPH,Wind Direction,Wind SpeedMPH,Gust SpeedMPH,PrecipitationIn,Events,Conditions,WindDirDegrees,DateUTC
12:15 AM,45.9,43.7,92,29.91,5.0,Calm,Calm,-,N/A,,Overcast,0,2013-04-10 05:15:00
12:35 AM,46.6,44.6,93,29.90,5.0,Calm,Calm,-,N/A,,Overcast,0,2013-04-10 05:35:00
12:55 AM,47.3,44.8,91,29.90,5.0,ENE,3.5,-,N/A,,Overcast,70,2013-04-10 05:55:00
1:15 AM,46.8,44.2,91,29.90,5.0,Calm,Calm,-,N/A,,Overcast,0,2013-04-10 06:15:00
1:35 AM,46.9,44.4,91,29.89,5.0,Calm,Calm,-,N/A,,Overcast,0,2013-04-10 06:35:00
1:55 AM,47.5,45.1,92,29.88,5.0,Calm,Calm,-,N/A,,Overcast,0,2013-04-10 06:55:00
2:15 AM,48.2,45.5,90,29.87,7.0,Calm,Calm,-,N/A,,Overcast,0,2013-04-10 07:15:00
2:55 AM,49.1,46.4,90,29.86,5.0,Calm,Calm,-,N/A,,Overcast,0,2013-04-10 07:55:00
3:15 AM,49.1,46.4,90,29.87,5.0,Calm,Calm,-,N/A,,Overcast,0,2013-04-10 08:15:00
3:35 AM,50.0,47.3,90,29.86,5.0,Calm,Calm,-,N/A,,Overcast,0,2013-04-10 08:35:00
3:55 AM,50.0,47.7,92,29.86,5.0,Calm,Calm,-,N/A,,Overcast,0,2013-04-10 08:55:00
4:15 AM,50.2,47.8,92,29.85,5.0,East,5.8,-,N/A,,Overcast,80,2013-04-10 09:15:00
4:35 AM,50.4,47.5,90,29.86,5.0,NE,3.5,-,N/A,,Overcast,40,2013-04-10 09:35:00
4:55 AM,50.5,47.5,89,29.85,5.0,North,5.8,-,N/A,,Overcast,360,2013-04-10 09:55:00
5:15 AM,49.1,45.5,87,29.85,5.0,NNW,6.9,-,N/A,,Overcast,340,2013-04-10 10:15:00
5:35 AM,46.4,43.7,90,29.83,5.0,North,6.9,-,N/A,,Overcast,360,2013-04-10 10:35:00
5:55 AM,46.4,43.7,90,29.84,5.0,North,6.9,-,N/A,,Overcast,360,2013-04-10 10:55:00
6:15 AM,46.0,43.7,92,29.84,5.0,North,5.8,-,N/A,,Overcast,360,2013-04-10 11:15:00
6:35 AM,45.9,43.7,92,29.85,5.0,North,6.9,-,N/A,,Overcast,10,2013-04-10 11:35:00
6:55 AM,46.2,43.9,92,29.85,5.0,NNE,5.8,-,N/A,,Overcast,20,2013-04-10 11:55:00
7:15 AM,47.5,44.8,90,29.84,5.0,NE,4.6,-,N/A,,Overcast,50,2013-04-10 12:15:00
7:35 AM,48.6,45.5,89,29.86,7.0,NE,4.6,-,N/A,,Overcast,50,2013-04-10 12:35:00
7:55 AM,48.9,45.5,88,29.87,7.0,NNW,4.6,-,N/A,Thunderstorm,Thunderstorm,330,2013-04-10 12:55:00
8:15 AM,47.3,44.8,91,29.87,5.0,NNW,9.2,-,N/A,,Light Drizzle,340,2013-04-10 13:15:00
8:35 AM,45.0,43.0,93,29.87,5.0,NW,8.1,-,N/A,Thunderstorm,Overcast,320,2013-04-10 13:35:00
8:55 AM,43.2,41.7,95,29.89,4.0,NW,15.0,23.0,N/A,Thunderstorm,Overcast,320,2013-04-10 13:55:00
9:15 AM,41.5,40.5,96,29.89,2.0,North,12.7,-,N/A,Thunderstorm,Drizzle,10,2013-04-10 14:15:00
9:35 AM,40.6,40.1,98,29.88,3.0,NNE,12.7,-,N/A,Thunderstorm,Unknown,30,2013-04-10 14:35:00
9:55 AM,41.0,40.1,97,29.90,7.0,NNE,11.5,-,N/A,,Overcast,30,2013-04-10 14:55:00
10:35 AM,43.2,42.6,98,29.87,7.0,East,8.1,-,N/A,Thunderstorm,Overcast,80,2013-04-10 15:35:00
10:55 AM,44.6,44.1,98,29.88,5.0,ESE,9.2,-,N/A,Thunderstorm,Overcast,110,2013-04-10 15:55:00
11:15 AM,45.1,44.6,98,29.91,7.0,East,4.6,-,N/A,,Overcast,100,2013-04-10 16:15:00
11:35 AM,46.0,45.5,98,29.87,2.0,ESE,9.2,-,N/A,,Light Drizzle,120,2013-04-10 16:35:00
11:55 AM,47.5,46.8,97,29.86,7.0,SE,5.8,-,N/A,Thunderstorm,Overcast,140,2013-04-10 16:55:00
12:15 PM,48.4,47.7,97,29.84,7.0,SE,4.6,-,N/A,,Overcast,140,2013-04-10 17:15:00
12:35 PM,49.5,48.4,96,29.86,7.0,Calm,Calm,-,N/A,Thunderstorm,Thunderstorm,0,2013-04-10 17:35:00
12:55 PM,49.3,48.0,95,29.88,7.0,NW,21.9,-,N/A,Thunderstorm,Overcast,320,2013-04-10 17:55:00
1:15 PM,41.9,40.6,95,29.86,2.5,North,16.1,23.0,N/A,,Overcast,360,2013-04-10 18:15:00
1:35 PM,41.0,40.1,97,29.88,2.5,North,10.4,-,N/A,Thunderstorm,Overcast,10,2013-04-10 18:35:00
1:55 PM,41.5,41.0,98,29.91,4.0,North,10.4,-,N/A,,Overcast,360,2013-04-10 18:55:00
2:15 PM,41.5,40.8,97,29.92,5.0,North,11.5,-,N/A,,Overcast,360,2013-04-10 19:15:00
2:35 PM,41.2,40.3,97,29.88,2.5,North,19.6,-,N/A,,Overcast,10,2013-04-10 19:35:00
2:55 PM,40.6,39.9,97,29.89,2.5,NNE,10.4,-,N/A,Rain,Light Rain,30,2013-04-10 19:55:00
3:15 PM,41.0,40.3,97,29.89,5.0,NE,4.6,-,N/A,Rain,Light Rain,50,2013-04-10 20:15:00
3:35 PM,41.4,41.0,99,29.88,7.0,North,10.4,-,N/A,,Overcast,360,2013-04-10 20:35:00
3:55 PM,41.9,41.2,97,29.88,7.0,North,6.9,-,N/A,,Overcast,10,2013-04-10 20:55:00
4:15 PM,42.1,41.9,99,29.89,7.0,NNE,3.5,-,N/A,,Overcast,20,2013-04-10 21:15:00
4:35 PM,43.2,42.8,99,29.90,5.0,East,6.9,-,N/A,,Overcast,80,2013-04-10 21:35:00
4:55 PM,43.9,43.7,99,29.91,5.0,North,8.1,-,N/A,,Overcast,10,2013-04-10 21:55:00
5:15 PM,44.6,44.1,98,29.90,7.0,NE,9.2,-,N/A,,Overcast,40,2013-04-10 22:15:00
5:35 PM,44.8,44.2,98,29.94,7.0,NNE,4.6,-,N/A,,Overcast,30,2013-04-10 22:35:00
5:55 PM,44.1,43.0,96,29.91,5.0,North,8.1,-,0.01,Rain,Light Rain,10,2013-04-10 22:55:00
6:15 PM,44.1,43.7,99,29.86,5.0,NE,8.1,-,N/A,Rain,Light Rain,50,2013-04-10 23:15:00
6:35 PM,44.2,43.7,98,29.84,7.0,ENE,12.7,-,N/A,,Light Drizzle,70,2013-04-10 23:35:00
6:55 PM,44.1,43.7,99,29.82,7.0,ENE,12.7,19.6,N/A,,Overcast,60,2013-04-10 23:55:00
7:15 PM,44.1,43.7,99,29.85,7.0,East,12.7,-,N/A,,Overcast,90,2013-04-11 00:15:00
7:35 PM,43.7,43.0,97,29.86,5.0,East,9.2,16.1,N/A,,Overcast,80,2013-04-11 00:35:00
7:55 PM,43.2,42.8,99,29.86,5.0,East,10.4,-,N/A,,Overcast,90,2013-04-11 00:55:00
8:15 PM,42.8,42.1,97,29.85,5.0,East,13.8,-,N/A,,Overcast,80,2013-04-11 01:15:00
8:35 PM,42.8,41.9,97,29.85,5.0,East,11.5,-,N/A,,Overcast,80,2013-04-11 01:35:00
8:55 PM,42.3,41.9,99,29.82,5.0,East,19.6,23.0,N/A,,Overcast,90,2013-04-11 01:55:00
9:15 PM,41.9,41.4,98,29.82,5.0,ENE,12.7,20.7,N/A,,Overcast,70,2013-04-11 02:15:00
9:35 PM,41.9,41.2,97,29.83,4.0,ENE,11.5,-,N/A,,Overcast,70,2013-04-11 02:35:00
9:55 PM,41.5,41.0,98,29.85,5.0,East,11.5,-,N/A,,Overcast,90,2013-04-11 02:55:00
10:15 PM,41.5,41.0,98,29.82,5.0,East,17.3,20.7,N/A,,Overcast,80,2013-04-11 03:15:00
10:35 PM,41.5,41.0,98,29.83,4.0,East,11.5,-,0.02,Rain,Rain,90,2013-04-11 03:35:00
10:55 PM,41.7,41.2,98,29.81,5.0,ENE,12.7,21.9,0.03,Thunderstorm,Unknown,70,2013-04-11 03:55:00
11:15 PM,41.9,41.4,98,29.83,4.0,East,12.7,-,N/A,Rain-Thunderstorm,Light Thunderstorms and Rain,80,2013-04-11 04:15:00
11:35 PM,41.5,41.2,99,29.87,3.0,NE,6.9,-,0.06,Rain-Thunderstorm,Rain,40,2013-04-11 04:35:00
11:55 PM,41.4,41.0,99,29.80,3.0,ENE,15.0,23.0,0.12,Rain,Rain,60,2013-04-11 04:55:00